sensor_id;sensor_type;location;lat;lon;timestamp;temperature;humidity
9919;DHT22;4998;51.024;13.828;2024-01-07T00:02:24;4.60;83.30
9919;DHT22;4998;51.024;13.828;2024-01-07T00:04:52;4.60;83.40
9919;DHT22;4998;51.024;13.828;2024-01-07T00:07:19;4.60;83.50
9919;DHT22;4998;51.024;13.828;2024-01-07T00:09:48;4.60;83.60
9919;DHT22;4998;51.024;13.828;2024-01-07T00:12:16;4.60;83.50
9919;DHT22;4998;51.024;13.828;2024-01-07T00:14:43;4.60;83.60
9919;DHT22;4998;51.024;13.828;2024-01-07T00:17:11;4.60;83.60
9919;DHT22;4998;51.024;13.828;2024-01-07T00:19:38;4.60;83.50
9919;DHT22;4998;51.024;13.828;2024-01-07T00:22:06;4.60;83.50
9919;DHT22;4998;51.024;13.828;2024-01-07T00:24:33;4.60;83.50
9919;DHT22;4998;51.024;13.828;2024-01-07T00:27:03;4.60;83.40
9919;DHT22;4998;51.024;13.828;2024-01-07T00:29:30;4.60;83.20
9919;DHT22;4998;51.024;13.828;2024-01-07T00:32:00;4.60;83.30
9919;DHT22;4998;51.024;13.828;2024-01-07T00:34:27;4.60;83.50
9919;DHT22;4998;51.024;13.828;2024-01-07T00:36:54;4.60;83.80
9919;DHT22;4998;51.024;13.828;2024-01-07T00:39:22;4.60;84.00
9919;DHT22;4998;51.024;13.828;2024-01-07T00:41:49;4.60;84.10
9919;DHT22;4998;51.024;13.828;2024-01-07T00:44:17;4.60;84.20
9919;DHT22;4998;51.024;13.828;2024-01-07T00:46:45;4.60;85.20
9919;DHT22;4998;51.024;13.828;2024-01-07T00:49:12;4.60;84.20
9919;DHT22;4998;51.024;13.828;2024-01-07T00:51:39;4.60;84.20
9919;DHT22;4998;51.024;13.828;2024-01-07T00:54:06;4.60;84.10
9919;DHT22;4998;51.024;13.828;2024-01-07T00:56:34;4.60;83.80
9919;DHT22;4998;51.024;13.828;2024-01-07T00:59:01;4.60;84.00
9919;DHT22;4998;51.024;13.828;2024-01-07T01:01:31;4.60;83.80
9919;DHT22;4998;51.024;13.828;2024-01-07T01:03:58;4.60;83.50
9919;DHT22;4998;51.024;13.828;2024-01-07T01:06:25;4.50;83.50
9919;DHT22;4998;51.024;13.828;2024-01-07T01:08:53;4.50;83.50
9919;DHT22;4998;51.024;13.828;2024-01-07T01:11:20;4.50;83.50
9919;DHT22;4998;51.024;13.828;2024-01-07T01:13:47;4.50;83.70
9919;DHT22;4998;51.024;13.828;2024-01-07T01:16:15;4.50;83.90
9919;DHT22;4998;51.024;13.828;2024-01-07T01:18:44;4.50;83.70
9919;DHT22;4998;51.024;13.828;2024-01-07T01:21:11;4.50;83.50
9919;DHT22;4998;51.024;13.828;2024-01-07T01:23:38;4.50;83.30
9919;DHT22;4998;51.024;13.828;2024-01-07T01:26:06;4.50;83.30
9919;DHT22;4998;51.024;13.828;2024-01-07T01:28:33;4.50;83.20
9919;DHT22;4998;51.024;13.828;2024-01-07T01:31:00;4.50;83.00
9919;DHT22;4998;51.024;13.828;2024-01-07T01:33:28;4.50;83.00
9919;DHT22;4998;51.024;13.828;2024-01-07T01:35:57;4.50;82.90
9919;DHT22;4998;51.024;13.828;2024-01-07T01:38:24;4.50;82.80
9919;DHT22;4998;51.024;13.828;2024-01-07T01:40:52;4.50;82.60
9919;DHT22;4998;51.024;13.828;2024-01-07T01:43:23;4.50;82.60
9919;DHT22;4998;51.024;13.828;2024-01-07T01:45:51;4.50;82.60
9919;DHT22;4998;51.024;13.828;2024-01-07T01:48:18;4.50;82.60
9919;DHT22;4998;51.024;13.828;2024-01-07T01:50:46;4.40;82.60
9919;DHT22;4998;51.024;13.828;2024-01-07T01:53:15;4.50;83.40
9919;DHT22;4998;51.024;13.828;2024-01-07T01:55:43;4.50;82.40
9919;DHT22;4998;51.024;13.828;2024-01-07T01:58:10;4.40;82.40
9919;DHT22;4998;51.024;13.828;2024-01-07T02:00:41;4.40;82.40
9919;DHT22;4998;51.024;13.828;2024-01-07T02:03:08;4.40;82.10
9919;DHT22;4998;51.024;13.828;2024-01-07T02:05:35;4.40;82.10
9919;DHT22;4998;51.024;13.828;2024-01-07T02:08:03;4.30;82.00
9919;DHT22;4998;51.024;13.828;2024-01-07T02:10:33;4.30;81.90
9919;DHT22;4998;51.024;13.828;2024-01-07T02:13:02;4.30;82.00
9919;DHT22;4998;51.024;13.828;2024-01-07T02:15:30;4.30;82.20
9919;DHT22;4998;51.024;13.828;2024-01-07T02:17:57;4.20;81.70
9919;DHT22;4998;51.024;13.828;2024-01-07T02:20:25;4.30;82.20
9919;DHT22;4998;51.024;13.828;2024-01-07T02:22:52;4.30;82.00
9919;DHT22;4998;51.024;13.828;2024-01-07T02:25:21;4.30;81.80
9919;DHT22;4998;51.024;13.828;2024-01-07T02:27:48;4.30;81.60
9919;DHT22;4998;51.024;13.828;2024-01-07T02:30:15;4.30;81.80
9919;DHT22;4998;51.024;13.828;2024-01-07T02:32:43;4.30;81.60
9919;DHT22;4998;51.024;13.828;2024-01-07T02:35:10;4.30;81.20
9919;DHT22;4998;51.024;13.828;2024-01-07T02:37:37;4.20;81.00
9919;DHT22;4998;51.024;13.828;2024-01-07T02:40:06;4.20;81.10
9919;DHT22;4998;51.024;13.828;2024-01-07T02:42:34;4.20;81.10
9919;DHT22;4998;51.024;13.828;2024-01-07T02:45:02;4.20;80.80
9919;DHT22;4998;51.024;13.828;2024-01-07T02:47:29;4.20;80.80
9919;DHT22;4998;51.024;13.828;2024-01-07T02:49:57;4.10;80.60
9919;DHT22;4998;51.024;13.828;2024-01-07T02:52:24;4.10;80.40
9919;DHT22;4998;51.024;13.828;2024-01-07T02:54:52;4.10;80.30
9919;DHT22;4998;51.024;13.828;2024-01-07T02:57:19;4.10;80.40
9919;DHT22;4998;51.024;13.828;2024-01-07T02:59:48;4.00;80.30
9919;DHT22;4998;51.024;13.828;2024-01-07T03:02:15;4.00;80.40
9919;DHT22;4998;51.024;13.828;2024-01-07T03:04:43;4.00;81.20
9919;DHT22;4998;51.024;13.828;2024-01-07T03:07:10;4.00;80.20
9919;DHT22;4998;51.024;13.828;2024-01-07T03:09:37;4.00;80.00
9919;DHT22;4998;51.024;13.828;2024-01-07T03:12:05;4.00;79.60
9919;DHT22;4998;51.024;13.828;2024-01-07T03:14:32;3.90;79.40
9919;DHT22;4998;51.024;13.828;2024-01-07T03:17:01;3.90;79.50
9919;DHT22;4998;51.024;13.828;2024-01-07T03:19:28;3.80;79.40
9919;DHT22;4998;51.024;13.828;2024-01-07T03:21:56;3.80;79.60
9919;DHT22;4998;51.024;13.828;2024-01-07T03:24:23;3.80;79.50
9919;DHT22;4998;51.024;13.828;2024-01-07T03:26:50;3.80;79.60
9919;DHT22;4998;51.024;13.828;2024-01-07T03:29:18;3.80;79.70
9919;DHT22;4998;51.024;13.828;2024-01-07T03:31:47;3.80;79.70
9919;DHT22;4998;51.024;13.828;2024-01-07T03:34:15;3.80;79.70
9919;DHT22;4998;51.024;13.828;2024-01-07T03:36:43;3.80;79.60
9919;DHT22;4998;51.024;13.828;2024-01-07T03:39:10;3.80;79.50
9919;DHT22;4998;51.024;13.828;2024-01-07T03:41:37;3.80;79.60
9919;DHT22;4998;51.024;13.828;2024-01-07T03:44:04;3.90;79.70
9919;DHT22;4998;51.024;13.828;2024-01-07T03:46:31;3.90;79.40
9919;DHT22;4998;51.024;13.828;2024-01-07T03:48:59;3.90;79.40
9919;DHT22;4998;51.024;13.828;2024-01-07T03:51:27;3.90;79.30
9919;DHT22;4998;51.024;13.828;2024-01-07T03:53:55;3.90;78.80
9919;DHT22;4998;51.024;13.828;2024-01-07T03:56:22;3.90;78.70
9919;DHT22;4998;51.024;13.828;2024-01-07T03:58:49;3.90;78.70
9919;DHT22;4998;51.024;13.828;2024-01-07T04:01:17;3.90;78.70
9919;DHT22;4998;51.024;13.828;2024-01-07T04:03:45;3.90;78.70
9919;DHT22;4998;51.024;13.828;2024-01-07T04:06:12;3.90;78.40
9919;DHT22;4998;51.024;13.828;2024-01-07T04:08:41;3.90;78.20
9919;DHT22;4998;51.024;13.828;2024-01-07T04:11:08;3.90;77.90
9919;DHT22;4998;51.024;13.828;2024-01-07T04:13:36;3.90;77.70
9919;DHT22;4998;51.024;13.828;2024-01-07T04:16:04;3.90;77.30
9919;DHT22;4998;51.024;13.828;2024-01-07T04:18:32;3.80;77.40
9919;DHT22;4998;51.024;13.828;2024-01-07T04:20:59;3.80;77.40
9919;DHT22;4998;51.024;13.828;2024-01-07T04:23:26;3.70;77.30
9919;DHT22;4998;51.024;13.828;2024-01-07T04:25:55;3.70;77.40
9919;DHT22;4998;51.024;13.828;2024-01-07T04:28:22;3.70;77.70
9919;DHT22;4998;51.024;13.828;2024-01-07T04:30:49;3.70;77.80
9919;DHT22;4998;51.024;13.828;2024-01-07T04:33:17;3.70;77.80
9919;DHT22;4998;51.024;13.828;2024-01-07T04:35:44;3.70;77.50
9919;DHT22;4998;51.024;13.828;2024-01-07T04:38:11;3.70;77.70
9919;DHT22;4998;51.024;13.828;2024-01-07T04:40:39;3.70;77.80
9919;DHT22;4998;51.024;13.828;2024-01-07T04:43:08;3.70;78.00
9919;DHT22;4998;51.024;13.828;2024-01-07T04:45:35;3.70;78.00
9919;DHT22;4998;51.024;13.828;2024-01-07T04:48:02;3.70;77.90
9919;DHT22;4998;51.024;13.828;2024-01-07T04:50:29;3.70;77.60
9919;DHT22;4998;51.024;13.828;2024-01-07T04:52:57;3.70;77.70
9919;DHT22;4998;51.024;13.828;2024-01-07T04:55:24;3.70;77.50
9919;DHT22;4998;51.024;13.828;2024-01-07T04:57:51;3.70;77.50
9919;DHT22;4998;51.024;13.828;2024-01-07T05:00:20;3.70;77.30
9919;DHT22;4998;51.024;13.828;2024-01-07T05:02:48;3.70;77.10
9919;DHT22;4998;51.024;13.828;2024-01-07T05:05:15;3.70;77.10
9919;DHT22;4998;51.024;13.828;2024-01-07T05:07:42;3.70;77.20
9919;DHT22;4998;51.024;13.828;2024-01-07T05:10:10;3.70;77.20
9919;DHT22;4998;51.024;13.828;2024-01-07T05:12:37;3.70;77.10
9919;DHT22;4998;51.024;13.828;2024-01-07T05:15:05;3.70;77.20
9919;DHT22;4998;51.024;13.828;2024-01-07T05:17:34;3.70;76.90
9919;DHT22;4998;51.024;13.828;2024-01-07T05:20:02;3.70;76.80
9919;DHT22;4998;51.024;13.828;2024-01-07T05:22:29;3.70;76.90
9919;DHT22;4998;51.024;13.828;2024-01-07T05:24:57;3.70;76.80
9919;DHT22;4998;51.024;13.828;2024-01-07T05:27:24;3.60;76.80
9919;DHT22;4998;51.024;13.828;2024-01-07T05:29:52;3.60;76.80
9919;DHT22;4998;51.024;13.828;2024-01-07T05:32:21;3.60;76.70
9919;DHT22;4998;51.024;13.828;2024-01-07T05:34:50;3.60;76.90
9919;DHT22;4998;51.024;13.828;2024-01-07T05:37:17;3.60;77.10
9919;DHT22;4998;51.024;13.828;2024-01-07T05:39:45;3.60;77.20
9919;DHT22;4998;51.024;13.828;2024-01-07T05:42:12;3.60;77.30
9919;DHT22;4998;51.024;13.828;2024-01-07T05:44:40;3.70;77.10
9919;DHT22;4998;51.024;13.828;2024-01-07T05:47:07;3.70;76.80
9919;DHT22;4998;51.024;13.828;2024-01-07T05:49:34;3.70;76.60
9919;DHT22;4998;51.024;13.828;2024-01-07T05:52:03;3.60;76.40
9919;DHT22;4998;51.024;13.828;2024-01-07T05:54:31;3.60;76.10
9919;DHT22;4998;51.024;13.828;2024-01-07T05:56:59;3.60;76.00
9919;DHT22;4998;51.024;13.828;2024-01-07T05:59:26;3.60;76.00
9919;DHT22;4998;51.024;13.828;2024-01-07T06:01:58;3.60;75.80
9919;DHT22;4998;51.024;13.828;2024-01-07T06:04:25;3.60;75.40
9919;DHT22;4998;51.024;13.828;2024-01-07T06:06:53;3.50;75.40
9919;DHT22;4998;51.024;13.828;2024-01-07T06:09:22;3.50;75.30
9919;DHT22;4998;51.024;13.828;2024-01-07T06:11:49;3.40;75.20
9919;DHT22;4998;51.024;13.828;2024-01-07T06:14:17;3.40;75.20
9919;DHT22;4998;51.024;13.828;2024-01-07T06:16:45;3.40;75.20
9919;DHT22;4998;51.024;13.828;2024-01-07T06:19:12;3.40;75.20
9919;DHT22;4998;51.024;13.828;2024-01-07T06:21:40;3.30;75.30
9919;DHT22;4998;51.024;13.828;2024-01-07T06:24:08;3.30;75.40
9919;DHT22;4998;51.024;13.828;2024-01-07T06:26:37;3.30;75.30
9919;DHT22;4998;51.024;13.828;2024-01-07T06:29:04;3.30;75.30
9919;DHT22;4998;51.024;13.828;2024-01-07T06:31:31;3.30;75.40
9919;DHT22;4998;51.024;13.828;2024-01-07T06:33:59;3.30;75.40
9919;DHT22;4998;51.024;13.828;2024-01-07T06:36:27;3.30;75.40
9919;DHT22;4998;51.024;13.828;2024-01-07T06:38:54;3.40;75.50
9919;DHT22;4998;51.024;13.828;2024-01-07T06:41:21;3.40;75.30
9919;DHT22;4998;51.024;13.828;2024-01-07T06:43:50;3.40;75.20
9919;DHT22;4998;51.024;13.828;2024-01-07T06:46:20;3.40;74.90
9919;DHT22;4998;51.024;13.828;2024-01-07T06:48:47;3.40;74.90
9919;DHT22;4998;51.024;13.828;2024-01-07T06:51:15;3.30;74.80
9919;DHT22;4998;51.024;13.828;2024-01-07T06:53:42;3.30;74.80
9919;DHT22;4998;51.024;13.828;2024-01-07T06:56:10;3.20;74.60
9919;DHT22;4998;51.024;13.828;2024-01-07T06:58:37;3.30;74.70
9919;DHT22;4998;51.024;13.828;2024-01-07T07:01:08;3.30;74.50
9919;DHT22;4998;51.024;13.828;2024-01-07T07:03:36;3.30;74.20
9919;DHT22;4998;51.024;13.828;2024-01-07T07:06:03;3.30;74.30
9919;DHT22;4998;51.024;13.828;2024-01-07T07:08:30;3.30;74.30
9919;DHT22;4998;51.024;13.828;2024-01-07T07:10:58;3.30;74.30
9919;DHT22;4998;51.024;13.828;2024-01-07T07:13:25;3.30;74.00
9919;DHT22;4998;51.024;13.828;2024-01-07T07:15:52;3.30;73.60
9919;DHT22;4998;51.024;13.828;2024-01-07T07:18:21;3.30;73.20
9919;DHT22;4998;51.024;13.828;2024-01-07T07:20:49;3.20;73.20
9919;DHT22;4998;51.024;13.828;2024-01-07T07:23:16;3.20;73.10
9919;DHT22;4998;51.024;13.828;2024-01-07T07:25:43;3.20;73.10
9919;DHT22;4998;51.024;13.828;2024-01-07T07:28:11;3.20;72.90
9919;DHT22;4998;51.024;13.828;2024-01-07T07:30:38;3.20;72.80
9919;DHT22;4998;51.024;13.828;2024-01-07T07:33:06;3.10;72.70
9919;DHT22;4998;51.024;13.828;2024-01-07T07:35:34;3.10;72.70
9919;DHT22;4998;51.024;13.828;2024-01-07T07:38:04;3.10;72.80
9919;DHT22;4998;51.024;13.828;2024-01-07T07:40:32;3.10;72.80
9919;DHT22;4998;51.024;13.828;2024-01-07T07:42:59;3.10;72.90
9919;DHT22;4998;51.024;13.828;2024-01-07T07:45:26;3.00;72.70
9919;DHT22;4998;51.024;13.828;2024-01-07T07:47:53;3.10;73.00
9919;DHT22;4998;51.024;13.828;2024-01-07T07:50:21;3.10;73.10
9919;DHT22;4998;51.024;13.828;2024-01-07T07:52:49;3.10;73.00
9919;DHT22;4998;51.024;13.828;2024-01-07T07:55:17;3.10;72.80
9919;DHT22;4998;51.024;13.828;2024-01-07T07:57:45;3.10;72.40
9919;DHT22;4998;51.024;13.828;2024-01-07T08:00:14;3.10;72.20
9919;DHT22;4998;51.024;13.828;2024-01-07T08:02:41;3.10;72.20
9919;DHT22;4998;51.024;13.828;2024-01-07T08:05:09;3.00;72.30
9919;DHT22;4998;51.024;13.828;2024-01-07T08:07:36;3.00;72.40
9919;DHT22;4998;51.024;13.828;2024-01-07T08:10:06;3.00;72.40
9919;DHT22;4998;51.024;13.828;2024-01-07T08:12:35;3.00;72.20
9919;DHT22;4998;51.024;13.828;2024-01-07T08:15:03;3.00;72.00
9919;DHT22;4998;51.024;13.828;2024-01-07T08:17:31;3.00;71.90
9919;DHT22;4998;51.024;13.828;2024-01-07T08:19:58;3.00;71.60
9919;DHT22;4998;51.024;13.828;2024-01-07T08:22:27;3.00;71.30
9919;DHT22;4998;51.024;13.828;2024-01-07T08:24:54;3.00;70.90
9919;DHT22;4998;51.024;13.828;2024-01-07T08:27:23;2.90;71.00
9919;DHT22;4998;51.024;13.828;2024-01-07T08:29:51;2.90;71.00
9919;DHT22;4998;51.024;13.828;2024-01-07T08:32:18;2.90;71.40
9919;DHT22;4998;51.024;13.828;2024-01-07T08:34:48;2.90;71.50
9919;DHT22;4998;51.024;13.828;2024-01-07T08:37:15;2.90;71.40
9919;DHT22;4998;51.024;13.828;2024-01-07T08:39:43;2.90;71.40
9919;DHT22;4998;51.024;13.828;2024-01-07T08:42:10;2.90;71.00
9919;DHT22;4998;51.024;13.828;2024-01-07T08:44:39;2.90;70.80
9919;DHT22;4998;51.024;13.828;2024-01-07T08:47:06;2.90;70.80
9919;DHT22;4998;51.024;13.828;2024-01-07T08:49:33;2.90;70.70
9919;DHT22;4998;51.024;13.828;2024-01-07T08:52:01;2.90;70.90
9919;DHT22;4998;51.024;13.828;2024-01-07T08:54:29;2.90;70.80
9919;DHT22;4998;51.024;13.828;2024-01-07T08:56:56;2.90;70.70
9919;DHT22;4998;51.024;13.828;2024-01-07T08:59:24;2.90;70.60
9919;DHT22;4998;51.024;13.828;2024-01-07T09:01:52;2.90;70.60
9919;DHT22;4998;51.024;13.828;2024-01-07T09:04:20;2.90;70.40
9919;DHT22;4998;51.024;13.828;2024-01-07T09:06:47;2.90;70.50
9919;DHT22;4998;51.024;13.828;2024-01-07T09:09:15;2.90;70.40
9919;DHT22;4998;51.024;13.828;2024-01-07T09:11:42;2.90;70.30
9919;DHT22;4998;51.024;13.828;2024-01-07T09:14:09;2.80;70.10
9919;DHT22;4998;51.024;13.828;2024-01-07T09:16:37;2.90;70.20
9919;DHT22;4998;51.024;13.828;2024-01-07T09:19:06;2.80;69.80
9919;DHT22;4998;51.024;13.828;2024-01-07T09:21:33;2.80;69.70
9919;DHT22;4998;51.024;13.828;2024-01-07T09:24:01;2.80;69.70
9919;DHT22;4998;51.024;13.828;2024-01-07T09:26:28;2.80;69.60
9919;DHT22;4998;51.024;13.828;2024-01-07T09:28:56;2.80;69.60
9919;DHT22;4998;51.024;13.828;2024-01-07T09:31:23;2.80;69.50
9919;DHT22;4998;51.024;13.828;2024-01-07T09:33:51;2.80;69.70
9919;DHT22;4998;51.024;13.828;2024-01-07T09:36:20;2.80;69.40
9919;DHT22;4998;51.024;13.828;2024-01-07T09:38:47;2.80;69.20
9919;DHT22;4998;51.024;13.828;2024-01-07T09:41:15;2.70;69.20
9919;DHT22;4998;51.024;13.828;2024-01-07T09:43:42;2.70;69.10
9919;DHT22;4998;51.024;13.828;2024-01-07T09:46:09;2.70;69.30
9919;DHT22;4998;51.024;13.828;2024-01-07T09:48:37;2.70;69.10
9919;DHT22;4998;51.024;13.828;2024-01-07T09:51:04;2.70;69.10
9919;DHT22;4998;51.024;13.828;2024-01-07T09:53:35;2.80;69.40
9919;DHT22;4998;51.024;13.828;2024-01-07T09:56:10;2.80;69.50
9919;DHT22;4998;51.024;13.828;2024-01-07T09:58:39;2.80;69.40
9919;DHT22;4998;51.024;13.828;2024-01-07T10:01:07;2.80;69.50
9919;DHT22;4998;51.024;13.828;2024-01-07T10:03:34;2.80;69.00
9919;DHT22;4998;51.024;13.828;2024-01-07T10:06:02;2.80;68.40
9919;DHT22;4998;51.024;13.828;2024-01-07T10:08:29;2.80;68.50
9919;DHT22;4998;51.024;13.828;2024-01-07T10:10:58;2.80;68.60
9919;DHT22;4998;51.024;13.828;2024-01-07T10:13:27;2.80;68.40
9919;DHT22;4998;51.024;13.828;2024-01-07T10:15:54;2.80;68.70
9919;DHT22;4998;51.024;13.828;2024-01-07T10:18:22;2.70;68.40
9919;DHT22;4998;51.024;13.828;2024-01-07T10:20:50;2.70;68.40
9919;DHT22;4998;51.024;13.828;2024-01-07T10:23:19;2.70;68.40
9919;DHT22;4998;51.024;13.828;2024-01-07T10:25:47;2.70;68.30
9919;DHT22;4998;51.024;13.828;2024-01-07T10:28:16;2.70;68.30
9919;DHT22;4998;51.024;13.828;2024-01-07T10:30:48;2.70;68.20
9919;DHT22;4998;51.024;13.828;2024-01-07T10:33:17;2.70;68.00
9919;DHT22;4998;51.024;13.828;2024-01-07T10:35:51;2.70;67.90
9919;DHT22;4998;51.024;13.828;2024-01-07T10:38:19;2.70;67.70
9919;DHT22;4998;51.024;13.828;2024-01-07T10:40:48;2.60;67.90
9919;DHT22;4998;51.024;13.828;2024-01-07T10:43:19;2.60;67.80
9919;DHT22;4998;51.024;13.828;2024-01-07T10:45:47;2.60;67.70
9919;DHT22;4998;51.024;13.828;2024-01-07T10:48:18;2.60;67.70
9919;DHT22;4998;51.024;13.828;2024-01-07T10:50:46;2.60;67.50
9919;DHT22;4998;51.024;13.828;2024-01-07T10:53:19;2.60;67.50
9919;DHT22;4998;51.024;13.828;2024-01-07T10:55:52;2.60;67.30
9919;DHT22;4998;51.024;13.828;2024-01-07T10:58:21;2.60;67.30
9919;DHT22;4998;51.024;13.828;2024-01-07T11:00:49;2.50;67.20
9919;DHT22;4998;51.024;13.828;2024-01-07T11:03:26;2.50;67.00
9919;DHT22;4998;51.024;13.828;2024-01-07T11:05:58;2.50;66.70
9919;DHT22;4998;51.024;13.828;2024-01-07T11:08:28;2.50;66.70
9919;DHT22;4998;51.024;13.828;2024-01-07T11:11:03;2.50;66.50
9919;DHT22;4998;51.024;13.828;2024-01-07T11:13:34;2.40;66.50
9919;DHT22;4998;51.024;13.828;2024-01-07T11:16:02;2.40;66.40
9919;DHT22;4998;51.024;13.828;2024-01-07T11:18:31;2.40;66.60
9919;DHT22;4998;51.024;13.828;2024-01-07T11:21:00;2.40;66.50
9919;DHT22;4998;51.024;13.828;2024-01-07T11:23:29;2.40;66.40
9919;DHT22;4998;51.024;13.828;2024-01-07T11:25:59;2.40;66.30
9919;DHT22;4998;51.024;13.828;2024-01-07T11:28:49;2.50;66.30
9919;DHT22;4998;51.024;13.828;2024-01-07T11:31:18;2.50;65.70
9919;DHT22;4998;51.024;13.828;2024-01-07T11:33:47;2.50;66.00
9919;DHT22;4998;51.024;13.828;2024-01-07T11:36:15;2.50;65.90
9919;DHT22;4998;51.024;13.828;2024-01-07T11:38:43;2.50;65.50
9919;DHT22;4998;51.024;13.828;2024-01-07T11:41:14;2.50;65.40
9919;DHT22;4998;51.024;13.828;2024-01-07T11:43:55;2.60;65.00
9919;DHT22;4998;51.024;13.828;2024-01-07T11:46:25;2.50;64.50
9919;DHT22;4998;51.024;13.828;2024-01-07T11:48:53;2.60;64.90
9919;DHT22;4998;51.024;13.828;2024-01-07T11:51:24;2.50;64.70
9919;DHT22;4998;51.024;13.828;2024-01-07T11:53:52;2.60;64.80
9919;DHT22;4998;51.024;13.828;2024-01-07T11:56:20;2.50;64.60
9919;DHT22;4998;51.024;13.828;2024-01-07T11:58:47;2.60;64.80
9919;DHT22;4998;51.024;13.828;2024-01-07T12:01:18;2.60;64.80
9919;DHT22;4998;51.024;13.828;2024-01-07T12:03:45;2.60;64.30
9919;DHT22;4998;51.024;13.828;2024-01-07T12:06:13;2.60;64.20
9919;DHT22;4998;51.024;13.828;2024-01-07T12:08:41;2.60;64.00
9919;DHT22;4998;51.024;13.828;2024-01-07T12:11:09;2.60;63.80
9919;DHT22;4998;51.024;13.828;2024-01-07T12:13:39;2.60;63.50
9919;DHT22;4998;51.024;13.828;2024-01-07T12:16:08;2.60;63.40
9919;DHT22;4998;51.024;13.828;2024-01-07T12:18:38;2.60;63.20
9919;DHT22;4998;51.024;13.828;2024-01-07T12:21:06;2.60;63.30
9919;DHT22;4998;51.024;13.828;2024-01-07T12:23:35;2.60;63.50
9919;DHT22;4998;51.024;13.828;2024-01-07T12:26:07;2.50;63.50
9919;DHT22;4998;51.024;13.828;2024-01-07T12:28:35;2.50;63.60
9919;DHT22;4998;51.024;13.828;2024-01-07T12:31:03;2.60;63.80
9919;DHT22;4998;51.024;13.828;2024-01-07T12:33:30;2.60;63.90
9919;DHT22;4998;51.024;13.828;2024-01-07T12:36:01;2.60;64.20
9919;DHT22;4998;51.024;13.828;2024-01-07T12:38:28;2.60;63.50
9919;DHT22;4998;51.024;13.828;2024-01-07T12:40:56;2.60;63.30
9919;DHT22;4998;51.024;13.828;2024-01-07T12:43:23;2.60;63.20
9919;DHT22;4998;51.024;13.828;2024-01-07T12:45:51;2.60;63.40
9919;DHT22;4998;51.024;13.828;2024-01-07T12:48:20;2.60;63.40
9919;DHT22;4998;51.024;13.828;2024-01-07T12:50:48;2.60;63.40
9919;DHT22;4998;51.024;13.828;2024-01-07T12:53:17;2.60;63.40
9919;DHT22;4998;51.024;13.828;2024-01-07T12:55:44;2.60;62.80
9919;DHT22;4998;51.024;13.828;2024-01-07T12:58:12;2.60;63.10
9919;DHT22;4998;51.024;13.828;2024-01-07T13:00:40;2.60;63.30
9919;DHT22;4998;51.024;13.828;2024-01-07T13:03:07;2.60;63.10
9919;DHT22;4998;51.024;13.828;2024-01-07T13:05:39;2.60;63.10
9919;DHT22;4998;51.024;13.828;2024-01-07T13:08:07;2.60;62.90
9919;DHT22;4998;51.024;13.828;2024-01-07T13:10:36;2.60;62.80
9919;DHT22;4998;51.024;13.828;2024-01-07T13:13:04;2.60;62.50
9919;DHT22;4998;51.024;13.828;2024-01-07T13:15:31;2.60;62.40
9919;DHT22;4998;51.024;13.828;2024-01-07T13:17:59;2.60;62.40
9919;DHT22;4998;51.024;13.828;2024-01-07T13:20:26;2.50;62.30
9919;DHT22;4998;51.024;13.828;2024-01-07T13:22:53;2.50;62.20
9919;DHT22;4998;51.024;13.828;2024-01-07T13:25:21;2.50;62.20
9919;DHT22;4998;51.024;13.828;2024-01-07T13:27:50;2.50;62.30
9919;DHT22;4998;51.024;13.828;2024-01-07T13:30:18;2.50;62.20
9919;DHT22;4998;51.024;13.828;2024-01-07T13:32:46;2.50;62.20
9919;DHT22;4998;51.024;13.828;2024-01-07T13:35:15;2.50;62.20
9919;DHT22;4998;51.024;13.828;2024-01-07T13:37:42;2.40;62.20
9919;DHT22;4998;51.024;13.828;2024-01-07T13:40:10;2.50;62.40
9919;DHT22;4998;51.024;13.828;2024-01-07T13:42:40;2.50;62.40
9919;DHT22;4998;51.024;13.828;2024-01-07T13:45:09;2.50;62.40
9919;DHT22;4998;51.024;13.828;2024-01-07T13:47:39;2.40;62.40
9919;DHT22;4998;51.024;13.828;2024-01-07T13:50:07;2.40;62.30
9919;DHT22;4998;51.024;13.828;2024-01-07T13:52:36;2.50;62.20
9919;DHT22;4998;51.024;13.828;2024-01-07T13:55:04;2.50;62.20
9919;DHT22;4998;51.024;13.828;2024-01-07T13:57:31;2.50;62.30
9919;DHT22;4998;51.024;13.828;2024-01-07T13:59:58;2.40;62.40
9919;DHT22;4998;51.024;13.828;2024-01-07T14:02:27;2.50;62.60
9919;DHT22;4998;51.024;13.828;2024-01-07T14:04:55;2.50;62.40
9919;DHT22;4998;51.024;13.828;2024-01-07T14:07:23;2.50;62.60
9919;DHT22;4998;51.024;13.828;2024-01-07T14:09:52;2.50;62.20
9919;DHT22;4998;51.024;13.828;2024-01-07T14:12:19;2.50;62.60
9919;DHT22;4998;51.024;13.828;2024-01-07T14:14:47;2.60;62.70
9919;DHT22;4998;51.024;13.828;2024-01-07T14:17:14;2.60;62.50
9919;DHT22;4998;51.024;13.828;2024-01-07T14:19:44;2.60;62.40
9919;DHT22;4998;51.024;13.828;2024-01-07T14:22:12;2.60;62.30
9919;DHT22;4998;51.024;13.828;2024-01-07T14:24:39;2.60;62.30
9919;DHT22;4998;51.024;13.828;2024-01-07T14:27:07;2.60;62.10
9919;DHT22;4998;51.024;13.828;2024-01-07T14:29:37;2.60;61.80
9919;DHT22;4998;51.024;13.828;2024-01-07T14:32:05;2.60;62.00
9919;DHT22;4998;51.024;13.828;2024-01-07T14:34:33;2.60;61.90
9919;DHT22;4998;51.024;13.828;2024-01-07T14:37:02;2.50;61.80
9919;DHT22;4998;51.024;13.828;2024-01-07T14:39:30;2.50;61.80
9919;DHT22;4998;51.024;13.828;2024-01-07T14:41:58;2.50;61.60
9919;DHT22;4998;51.024;13.828;2024-01-07T14:44:25;2.50;61.50
9919;DHT22;4998;51.024;13.828;2024-01-07T14:46:53;2.50;61.00
9919;DHT22;4998;51.024;13.828;2024-01-07T14:49:20;2.50;61.50
9919;DHT22;4998;51.024;13.828;2024-01-07T14:51:47;2.50;61.50
9919;DHT22;4998;51.024;13.828;2024-01-07T14:54:16;2.50;61.70
9919;DHT22;4998;51.024;13.828;2024-01-07T14:56:44;2.50;61.60
9919;DHT22;4998;51.024;13.828;2024-01-07T14:59:11;2.50;61.70
9919;DHT22;4998;51.024;13.828;2024-01-07T15:01:38;2.50;61.60
9919;DHT22;4998;51.024;13.828;2024-01-07T15:04:09;2.50;61.60
9919;DHT22;4998;51.024;13.828;2024-01-07T15:06:41;2.50;61.60
9919;DHT22;4998;51.024;13.828;2024-01-07T15:09:09;2.50;61.30
9919;DHT22;4998;51.024;13.828;2024-01-07T15:11:38;2.50;61.30
9919;DHT22;4998;51.024;13.828;2024-01-07T15:14:07;2.40;61.50
9919;DHT22;4998;51.024;13.828;2024-01-07T15:16:35;2.50;61.60
9919;DHT22;4998;51.024;13.828;2024-01-07T15:19:03;2.50;61.60
9919;DHT22;4998;51.024;13.828;2024-01-07T15:21:30;2.50;61.50
9919;DHT22;4998;51.024;13.828;2024-01-07T15:23:58;2.50;61.40
9919;DHT22;4998;51.024;13.828;2024-01-07T15:26:25;2.50;61.40
9919;DHT22;4998;51.024;13.828;2024-01-07T15:28:54;2.50;61.30
9919;DHT22;4998;51.024;13.828;2024-01-07T15:31:22;2.50;61.20
9919;DHT22;4998;51.024;13.828;2024-01-07T15:33:49;2.50;61.20
9919;DHT22;4998;51.024;13.828;2024-01-07T15:36:17;2.50;61.30
9919;DHT22;4998;51.024;13.828;2024-01-07T15:38:44;2.50;61.30
9919;DHT22;4998;51.024;13.828;2024-01-07T15:41:12;2.40;61.10
9919;DHT22;4998;51.024;13.828;2024-01-07T15:43:39;2.50;61.30
9919;DHT22;4998;51.024;13.828;2024-01-07T15:46:08;2.40;61.30
9919;DHT22;4998;51.024;13.828;2024-01-07T15:48:35;2.50;61.70
9919;DHT22;4998;51.024;13.828;2024-01-07T15:51:03;2.50;61.80
9919;DHT22;4998;51.024;13.828;2024-01-07T15:53:30;2.50;61.90
9919;DHT22;4998;51.024;13.828;2024-01-07T15:56:01;2.50;61.90
9919;DHT22;4998;51.024;13.828;2024-01-07T15:58:29;2.50;61.80
9919;DHT22;4998;51.024;13.828;2024-01-07T16:00:59;2.60;61.90
9919;DHT22;4998;51.024;13.828;2024-01-07T16:03:30;2.60;61.90
9919;DHT22;4998;51.024;13.828;2024-01-07T16:05:58;2.60;61.80
9919;DHT22;4998;51.024;13.828;2024-01-07T16:08:25;2.60;61.70